createdAt,value
2017-12-19T00:00:36.258Z,22.13
2017-12-19T00:03:04.286Z,22.73
2017-12-19T00:05:32.341Z,21.90
2017-12-19T00:08:01.039Z,22.70
2017-12-19T00:10:29.257Z,25.63
2017-12-19T00:12:58.033Z,24.20
2017-12-19T00:15:26.326Z,23.37
2017-12-19T00:17:54.570Z,23.27
2017-12-19T00:20:22.886Z,19.97
2017-12-19T00:22:51.419Z,20.60
2017-12-19T00:25:19.706Z,23.17
2017-12-19T00:27:47.979Z,27.07
2017-12-19T00:30:16.236Z,25.90
2017-12-19T00:32:44.517Z,22.27
2017-12-19T00:35:13.573Z,24.30
2017-12-19T00:37:41.813Z,25.60
2017-12-19T00:40:10.085Z,22.10
2017-12-19T00:42:38.330Z,22.60
2017-12-19T00:45:06.623Z,22.17
2017-12-19T00:47:35.634Z,19.67
2017-12-19T00:50:03.910Z,20.60
2017-12-19T00:52:32.927Z,19.30
2017-12-19T00:55:01.192Z,21.23
2017-12-19T00:57:29.489Z,20.40
2017-12-19T00:59:57.730Z,21.57
2017-12-19T01:02:26.727Z,22.40
2017-12-19T01:04:54.981Z,21.27
2017-12-19T01:07:24.025Z,21.00
2017-12-19T01:09:52.290Z,21.67
2017-12-19T01:12:20.570Z,20.47
2017-12-19T01:14:48.817Z,20.70
2017-12-19T01:17:17.102Z,21.23
2017-12-19T01:19:46.090Z,19.40
2017-12-19T01:22:15.089Z,19.37
2017-12-19T01:24:44.099Z,20.10
2017-12-19T01:27:12.373Z,20.30
2017-12-19T01:29:40.626Z,21.47
2017-12-19T01:32:09.653Z,20.47
2017-12-19T01:34:38.689Z,21.20
2017-12-19T01:37:06.951Z,23.23
2017-12-19T01:39:35.194Z,20.27
2017-12-19T01:42:03.466Z,20.77
2017-12-19T01:44:32.491Z,22.87
2017-12-19T01:47:00.774Z,19.87
2017-12-19T01:49:29.067Z,22.50
2017-12-19T01:51:57.322Z,22.60
2017-12-19T01:54:25.578Z,24.90
2017-12-19T01:56:53.842Z,21.80
2017-12-19T01:59:22.928Z,21.37
2017-12-19T02:01:51.130Z,20.40
2017-12-19T02:04:19.392Z,21.93
2017-12-19T02:06:48.486Z,26.23
2017-12-19T02:09:17.499Z,23.93
2017-12-19T02:11:45.782Z,26.17
2017-12-19T02:14:14.030Z,22.40
2017-12-19T02:16:42.445Z,22.97
2017-12-19T02:19:10.731Z,27.23
2017-12-19T02:21:39.797Z,26.40
2017-12-19T02:24:08.062Z,27.17
2017-12-19T02:26:36.384Z,27.37
2017-12-19T02:29:04.619Z,27.57
2017-12-19T02:31:33.652Z,29.10
2017-12-19T02:34:01.930Z,29.07
2017-12-19T02:36:30.195Z,30.60
2017-12-19T02:38:58.499Z,32.47
2017-12-19T02:41:26.772Z,32.87
2017-12-19T02:43:55.063Z,34.80
2017-12-19T02:46:23.329Z,31.73
2017-12-19T02:48:51.648Z,35.93
2017-12-19T02:51:20.688Z,32.20
2017-12-19T02:53:48.977Z,34.93
2017-12-19T02:56:17.304Z,36.60
2017-12-19T02:58:45.601Z,36.87
2017-12-19T03:01:13.901Z,32.23
2017-12-19T03:03:42.184Z,29.93
2017-12-19T03:06:10.475Z,32.40
2017-12-19T03:08:38.740Z,31.60
2017-12-19T03:11:07.033Z,29.00
2017-12-19T03:13:35.976Z,30.80
2017-12-19T03:16:05.019Z,27.50
2017-12-19T03:18:34.119Z,27.97
2017-12-19T03:21:02.398Z,26.23
2017-12-19T03:23:30.708Z,26.80
2017-12-19T03:25:59.757Z,30.00
2017-12-19T03:28:28.028Z,26.97
2017-12-19T03:30:56.270Z,24.90
2017-12-19T03:33:25.309Z,24.10
2017-12-19T03:35:53.558Z,26.50
2017-12-19T03:38:21.862Z,24.40
2017-12-19T03:40:50.154Z,25.10
2017-12-19T03:43:18.461Z,25.27
2017-12-19T03:45:46.844Z,24.50
2017-12-19T03:48:15.066Z,25.07
2017-12-19T03:50:43.364Z,23.33
2017-12-19T03:53:11.598Z,23.20
2017-12-19T03:55:39.921Z,22.90
2017-12-19T03:58:08.205Z,22.30
2017-12-19T04:00:36.483Z,21.50
2017-12-19T04:03:04.750Z,21.77
2017-12-19T04:05:33.031Z,19.50
2017-12-19T04:08:02.128Z,21.93
2017-12-19T04:10:30.411Z,19.13
2017-12-19T04:12:58.926Z,20.07
2017-12-19T04:15:27.956Z,19.00
2017-12-19T04:17:56.244Z,19.10
2017-12-19T04:20:24.510Z,19.13
2017-12-19T04:22:52.767Z,20.37
2017-12-19T04:25:21.800Z,21.50
2017-12-19T04:27:50.042Z,20.43
2017-12-19T04:30:18.355Z,26.60
2017-12-19T04:32:46.607Z,21.37
2017-12-19T04:35:14.859Z,21.47
2017-12-19T04:37:43.903Z,21.37
2017-12-19T04:40:12.196Z,21.00
2017-12-19T04:42:40.473Z,21.37
2017-12-19T04:45:08.794Z,21.73
2017-12-19T04:47:37.830Z,20.03
2017-12-19T04:50:06.102Z,21.57
2017-12-19T04:52:34.738Z,19.57
2017-12-19T04:55:03.762Z,23.60
2017-12-19T04:57:32.038Z,23.27
2017-12-19T05:00:00.337Z,23.03
2017-12-19T05:02:28.615Z,20.80
2017-12-19T05:04:56.911Z,25.40
2017-12-19T05:07:25.214Z,24.97
2017-12-19T05:09:54.267Z,23.80
2017-12-19T05:12:22.537Z,21.37
2017-12-19T05:14:50.825Z,21.20
2017-12-19T05:17:19.682Z,20.13
2017-12-19T05:19:48.705Z,20.33
2017-12-19T05:22:16.973Z,20.43
2017-12-19T05:24:45.621Z,21.47
2017-12-19T05:27:14.651Z,22.03
2017-12-19T05:29:42.949Z,21.43
2017-12-19T05:32:11.191Z,21.47
2017-12-19T05:34:40.251Z,23.20
2017-12-19T05:37:09.434Z,20.93
2017-12-19T05:39:37.713Z,19.33
2017-12-19T05:42:05.973Z,19.27
2017-12-19T05:44:34.401Z,18.97
2017-12-19T05:47:02.652Z,18.40
2017-12-19T05:49:30.923Z,22.40
2017-12-19T05:51:59.198Z,20.40
2017-12-19T05:54:27.493Z,20.77
2017-12-19T05:56:55.768Z,20.00
2017-12-19T05:59:24.082Z,21.43
2017-12-19T06:01:52.447Z,20.50
2017-12-19T06:04:20.743Z,17.80
2017-12-19T06:06:49.736Z,18.40
2017-12-19T06:09:18.814Z,18.17
2017-12-19T06:11:47.059Z,18.43
2017-12-19T06:14:15.358Z,21.13
2017-12-19T06:16:43.623Z,21.13
2017-12-19T06:19:12.688Z,20.57
2017-12-19T06:21:41.004Z,19.83
2017-12-19T06:24:09.275Z,21.30
2017-12-19T06:26:37.550Z,22.50
2017-12-19T06:29:05.810Z,21.03
2017-12-19T06:31:34.095Z,23.20
2017-12-19T06:34:02.512Z,21.10
2017-12-19T06:36:30.775Z,18.07
2017-12-19T06:38:59.017Z,21.50
2017-12-19T06:41:27.371Z,24.30
2017-12-19T06:43:56.407Z,21.13
2017-12-19T06:46:24.736Z,21.83
2017-12-19T06:48:53.353Z,23.03
2017-12-19T06:51:22.690Z,22.87
2017-12-19T06:53:52.047Z,23.80
2017-12-19T06:56:20.347Z,22.87
2017-12-19T06:58:48.610Z,23.10
2017-12-19T07:01:16.908Z,28.83
2017-12-19T07:03:45.147Z,27.10
2017-12-19T07:06:13.433Z,27.03
2017-12-19T07:08:42.446Z,26.97
2017-12-19T07:11:10.728Z,24.80
2017-12-19T07:13:39.053Z,21.77
2017-12-19T07:16:07.280Z,20.87
2017-12-19T07:18:35.570Z,23.90
2017-12-19T07:21:03.847Z,23.40
2017-12-19T07:23:32.167Z,22.90
2017-12-19T07:26:00.416Z,23.47
2017-12-19T07:28:28.714Z,25.67
2017-12-19T07:30:57.729Z,21.23
2017-12-19T07:33:26.776Z,22.97
2017-12-19T07:35:55.866Z,23.80
2017-12-19T07:38:24.138Z,23.50
2017-12-19T07:40:52.470Z,22.27
2017-12-19T07:43:21.550Z,20.40
2017-12-19T07:45:50.858Z,20.10
2017-12-19T07:48:19.091Z,19.73
2017-12-19T07:50:47.327Z,20.63
2017-12-19T07:53:16.376Z,20.37
2017-12-19T07:55:44.710Z,23.40
2017-12-19T07:58:13.742Z,18.87
2017-12-19T08:00:41.974Z,18.33
2017-12-19T08:03:11.050Z,18.43
2017-12-19T08:05:39.433Z,17.67
2017-12-19T08:08:08.502Z,17.87
2017-12-19T08:10:36.808Z,16.57
2017-12-19T08:13:05.008Z,17.40
2017-12-19T08:15:33.260Z,18.70
2017-12-19T08:18:02.313Z,19.00
2017-12-19T08:20:30.599Z,15.40
2017-12-19T08:22:58.896Z,15.10
2017-12-19T08:25:27.102Z,20.33
2017-12-19T08:27:56.102Z,15.80
2017-12-19T08:30:24.426Z,18.13
2017-12-19T08:32:52.664Z,18.60
2017-12-19T08:35:20.967Z,18.97
2017-12-19T08:37:49.362Z,17.70
2017-12-19T08:40:17.622Z,17.70
2017-12-19T08:42:45.857Z,16.50
2017-12-19T08:45:14.996Z,18.70
2017-12-19T08:47:43.241Z,18.40
2017-12-19T08:50:12.370Z,18.67
2017-12-19T08:52:40.620Z,18.37
2017-12-19T08:55:09.620Z,18.73
2017-12-19T08:57:38.643Z,19.07
2017-12-19T09:00:06.883Z,18.67
2017-12-19T09:02:35.194Z,18.30
2017-12-19T09:05:03.460Z,18.57
2017-12-19T09:07:31.737Z,16.30
2017-12-19T09:09:59.998Z,17.30
2017-12-19T09:12:29.033Z,20.43
2017-12-19T09:14:57.322Z,17.80
2017-12-19T09:17:25.620Z,19.63
2017-12-19T09:19:53.878Z,18.83
2017-12-19T09:22:22.111Z,18.63
2017-12-19T09:24:51.322Z,18.90
2017-12-19T09:27:19.579Z,17.60
2017-12-19T09:29:47.853Z,17.83
2017-12-19T09:32:16.106Z,20.00
2017-12-19T09:34:44.793Z,19.60
2017-12-19T09:37:13.046Z,20.23
2017-12-19T09:39:41.348Z,23.00
2017-12-19T09:42:09.576Z,22.90
2017-12-19T09:44:37.887Z,21.03
2017-12-19T09:47:06.131Z,19.37
2017-12-19T09:49:34.406Z,21.10
2017-12-19T09:52:02.643Z,19.90
2017-12-19T09:54:31.780Z,24.80
2017-12-19T09:57:00.050Z,21.00
2017-12-19T09:59:28.387Z,20.17
2017-12-19T10:01:56.615Z,21.53
2017-12-19T10:04:24.902Z,20.10
2017-12-19T10:06:53.147Z,21.27
2017-12-19T10:09:21.463Z,21.80
2017-12-19T10:11:49.677Z,21.70
2017-12-19T10:14:17.928Z,18.50
2017-12-19T10:16:46.186Z,19.30
2017-12-19T10:19:14.467Z,19.60
2017-12-19T10:21:42.734Z,21.30
2017-12-19T10:24:10.995Z,22.10
2017-12-19T10:26:39.302Z,22.30
2017-12-19T10:29:07.563Z,22.00
2017-12-19T10:31:35.858Z,22.80
2017-12-19T10:40:50.473Z,19.17
2017-12-19T10:43:18.755Z,19.40
2017-12-19T10:45:47.004Z,19.87
2017-12-19T10:48:16.005Z,20.73
2017-12-19T10:50:44.259Z,19.47
2017-12-19T10:53:12.503Z,23.67
2017-12-19T10:55:40.795Z,22.23
2017-12-19T10:58:09.832Z,19.17
2017-12-19T11:00:38.158Z,19.60
2017-12-19T11:03:06.340Z,20.87
2017-12-19T11:05:35.440Z,19.87
2017-12-19T11:08:03.653Z,21.03
2017-12-19T11:10:31.934Z,19.50
2017-12-19T11:13:00.219Z,23.37
2017-12-19T11:15:28.476Z,20.17
2017-12-19T11:17:56.815Z,21.70
2017-12-19T11:20:25.091Z,20.60
2017-12-19T11:22:53.335Z,20.80
2017-12-19T11:25:21.594Z,20.93
2017-12-19T11:27:49.836Z,24.50
2017-12-19T11:30:18.115Z,19.10
2017-12-19T11:32:46.386Z,21.00
2017-12-19T11:35:14.662Z,20.17
2017-12-19T11:37:43.688Z,19.30
2017-12-19T11:40:11.982Z,21.10
2017-12-19T11:42:40.330Z,21.00
2017-12-19T11:45:08.542Z,19.77
2017-12-19T11:47:36.807Z,17.40
2017-12-19T11:50:05.096Z,20.37
2017-12-19T11:52:33.428Z,19.77
2017-12-19T11:55:02.493Z,18.80
2017-12-19T11:57:30.790Z,20.87
2017-12-19T11:59:59.031Z,22.13
2017-12-19T12:02:27.320Z,20.90
2017-12-19T12:04:55.564Z,21.17
2017-12-19T12:07:23.845Z,21.43
2017-12-19T12:09:52.153Z,19.30
2017-12-19T12:12:20.406Z,18.50
2017-12-19T12:14:48.662Z,22.80
2017-12-19T12:17:17.697Z,22.60
2017-12-19T12:19:45.964Z,18.20
2017-12-19T12:22:14.232Z,24.73
2017-12-19T12:24:42.508Z,19.67
2017-12-19T12:27:10.758Z,18.37
2017-12-19T12:29:39.769Z,19.07
2017-12-19T12:32:08.027Z,19.27
2017-12-19T12:34:37.021Z,20.70
2017-12-19T12:37:05.302Z,20.93
2017-12-19T12:39:33.604Z,18.80
2017-12-19T12:42:02.627Z,21.43
2017-12-19T12:44:30.883Z,18.93
2017-12-19T12:46:59.143Z,21.20
2017-12-19T12:49:27.442Z,22.30
2017-12-19T12:51:55.702Z,20.57
2017-12-19T12:54:23.959Z,20.30
2017-12-19T12:56:52.966Z,20.37
2017-12-19T12:59:21.394Z,21.23
2017-12-19T13:01:49.719Z,21.20
2017-12-19T13:04:18.706Z,20.47
2017-12-19T13:06:46.993Z,21.50
2017-12-19T13:09:15.451Z,19.83
2017-12-19T13:11:43.726Z,22.50
2017-12-19T13:14:11.972Z,22.67
2017-12-19T13:16:40.255Z,23.73
2017-12-19T13:19:08.616Z,24.47
2017-12-19T13:21:36.893Z,21.53
2017-12-19T13:24:05.144Z,19.17
2017-12-19T13:26:34.172Z,21.00
2017-12-19T13:29:02.433Z,21.30
2017-12-19T13:31:30.695Z,20.57
2017-12-19T13:33:58.941Z,19.60
2017-12-19T13:36:27.218Z,19.87
2017-12-19T13:38:56.654Z,22.07
2017-12-19T13:41:24.970Z,61.40
2017-12-19T13:43:53.265Z,25.90
2017-12-19T13:46:21.524Z,25.10
2017-12-19T13:48:51.443Z,19.87
2017-12-19T13:51:19.702Z,21.83
2017-12-19T13:53:48.002Z,25.77
2017-12-19T13:56:16.244Z,20.80
2017-12-19T13:58:45.364Z,23.03
2017-12-19T14:01:13.665Z,21.27
2017-12-19T14:03:41.959Z,23.20
2017-12-19T14:06:11.116Z,22.73
2017-12-19T14:08:39.384Z,21.43
2017-12-19T14:11:07.873Z,22.40
2017-12-19T14:13:36.171Z,26.63
2017-12-19T14:16:05.082Z,24.20
2017-12-19T14:18:33.321Z,26.57
2017-12-19T14:21:01.635Z,24.23
2017-12-19T14:23:29.946Z,21.90
2017-12-19T14:25:58.223Z,25.40
2017-12-19T14:28:26.487Z,21.80
2017-12-19T14:30:55.523Z,22.57
2017-12-19T14:33:23.845Z,22.83
2017-12-19T14:35:52.084Z,22.90
2017-12-19T14:38:20.336Z,22.97
2017-12-19T14:40:48.643Z,22.67
2017-12-19T14:43:16.891Z,22.90
2017-12-19T14:45:46.012Z,21.20
2017-12-19T14:48:15.007Z,22.30
2017-12-19T14:50:43.783Z,22.10
2017-12-19T14:53:12.060Z,23.27
2017-12-19T14:55:40.327Z,21.67
2017-12-19T14:58:08.596Z,19.63
2017-12-19T15:00:37.675Z,22.57
2017-12-19T15:03:05.966Z,21.10
2017-12-19T15:05:34.311Z,24.70
2017-12-19T15:08:02.605Z,20.70
2017-12-19T15:10:30.915Z,23.27
2017-12-19T15:12:59.221Z,21.57
2017-12-19T15:15:27.476Z,19.83
2017-12-19T15:17:56.523Z,21.77
2017-12-19T15:20:24.817Z,22.53
2017-12-19T15:22:53.134Z,18.70
2017-12-19T15:25:21.415Z,21.40
2017-12-19T15:27:49.656Z,19.57
2017-12-19T15:30:18.731Z,20.70
2017-12-19T15:32:46.961Z,21.13
2017-12-19T15:35:15.267Z,21.00
2017-12-19T15:37:43.567Z,20.03
2017-12-19T15:40:11.837Z,21.70
2017-12-19T15:42:40.095Z,20.70
2017-12-19T15:45:08.466Z,20.53
2017-12-19T15:47:36.768Z,21.13
2017-12-19T15:50:05.161Z,21.33
2017-12-19T15:52:33.410Z,23.00
2017-12-19T15:55:01.649Z,26.90
2017-12-19T15:57:29.933Z,35.90
2017-12-19T15:59:58.197Z,22.93
2017-12-19T16:02:26.474Z,22.60
2017-12-19T16:04:55.697Z,21.70
2017-12-19T16:07:23.971Z,20.73
2017-12-19T16:09:52.238Z,43.23
2017-12-19T16:12:20.552Z,20.37
2017-12-19T16:14:48.821Z,19.60
2017-12-19T16:17:17.109Z,20.30
2017-12-19T16:19:45.441Z,21.60
2017-12-19T16:22:14.503Z,19.07
2017-12-19T16:24:42.780Z,19.97
2017-12-19T16:27:11.322Z,20.47
2017-12-19T16:29:39.584Z,21.10
2017-12-19T16:32:07.844Z,21.27
2017-12-19T16:34:36.904Z,22.53
2017-12-19T16:37:05.179Z,21.80
2017-12-19T16:39:33.438Z,22.07
2017-12-19T16:42:01.738Z,24.07
2017-12-19T16:44:30.058Z,25.03
2017-12-19T16:46:59.122Z,21.60
2017-12-19T16:49:28.228Z,25.27
2017-12-19T16:51:56.486Z,24.10
2017-12-19T16:54:24.765Z,24.40
2017-12-19T16:56:53.063Z,24.00
2017-12-19T16:59:21.355Z,23.70
2017-12-19T17:01:50.409Z,24.73
2017-12-19T17:04:18.663Z,23.43
2017-12-19T17:06:46.929Z,22.93
2017-12-19T17:09:16.098Z,21.90
2017-12-19T17:11:45.161Z,25.30
2017-12-19T17:14:13.431Z,23.87
2017-12-19T17:16:41.706Z,25.40
2017-12-19T17:19:09.990Z,22.50
2017-12-19T17:21:38.242Z,24.70
2017-12-19T17:24:06.573Z,22.13
2017-12-19T17:26:34.810Z,22.80
2017-12-19T17:29:03.107Z,33.40
2017-12-19T17:31:31.397Z,22.43
2017-12-19T17:33:59.650Z,24.17
2017-12-19T17:36:27.899Z,22.70
2017-12-19T17:38:56.175Z,23.57
2017-12-19T17:41:24.475Z,24.87
2017-12-19T17:43:52.729Z,22.83
2017-12-19T17:46:21.016Z,41.80
2017-12-19T17:48:49.250Z,27.43
2017-12-19T17:51:17.565Z,25.00
2017-12-19T17:53:46.610Z,22.30
2017-12-19T17:56:14.922Z,25.53
2017-12-19T17:58:43.184Z,25.00
2017-12-19T18:01:12.311Z,31.60
2017-12-19T18:03:40.618Z,31.87
2017-12-19T18:06:09.343Z,24.33
2017-12-19T18:08:37.649Z,24.70
2017-12-19T18:11:05.905Z,26.60
2017-12-19T18:13:34.955Z,25.60
2017-12-19T18:16:03.271Z,26.00
2017-12-19T18:18:31.589Z,27.07
2017-12-19T18:20:59.907Z,26.50
2017-12-19T18:23:28.185Z,30.40
2017-12-19T18:25:57.219Z,28.37
2017-12-19T18:28:25.489Z,30.10
2017-12-19T18:30:53.749Z,26.50
2017-12-19T18:33:22.034Z,26.10
2017-12-19T18:35:51.083Z,27.03
2017-12-19T18:38:19.367Z,24.10
2017-12-19T18:40:47.646Z,20.10
2017-12-19T18:43:15.918Z,23.20
2017-12-19T18:45:44.224Z,23.17
2017-12-19T18:48:12.552Z,23.77
2017-12-19T18:50:40.861Z,23.53
2017-12-19T18:53:09.135Z,23.97
2017-12-19T18:55:37.428Z,25.43
2017-12-19T18:58:05.729Z,27.50
2017-12-19T19:00:34.841Z,26.73
2017-12-19T19:03:03.938Z,26.83
2017-12-19T19:05:32.199Z,28.67
2017-12-19T19:08:00.571Z,26.60
2017-12-19T19:10:29.699Z,24.93
2017-12-19T19:12:57.942Z,26.93
2017-12-19T19:15:26.424Z,28.77
2017-12-19T19:17:54.717Z,24.70
2017-12-19T19:20:23.032Z,29.70
2017-12-19T19:22:51.572Z,26.90
2017-12-19T19:25:20.655Z,31.03
2017-12-19T19:27:49.366Z,31.20
2017-12-19T19:30:17.697Z,28.57
2017-12-19T19:32:46.518Z,25.77
2017-12-19T19:35:15.557Z,35.53
2017-12-19T19:37:44.306Z,37.60
2017-12-19T19:40:13.711Z,31.87
2017-12-19T19:42:42.073Z,32.60
2017-12-19T19:45:10.671Z,32.53
2017-12-19T19:47:39.258Z,33.80
2017-12-19T19:50:08.324Z,24.17
2017-12-19T19:52:36.947Z,29.57
2017-12-19T19:55:06.382Z,33.47
2017-12-19T19:57:35.036Z,31.50
2017-12-19T20:00:03.363Z,33.93
2017-12-19T20:02:31.681Z,29.47
2017-12-19T20:05:00.273Z,29.57
2017-12-19T20:07:29.341Z,28.67
2017-12-19T20:09:58.062Z,29.83
2017-12-19T20:12:26.424Z,24.60
2017-12-19T20:14:55.167Z,26.90
2017-12-19T20:17:23.533Z,25.83
2017-12-19T20:19:52.195Z,27.87
2017-12-19T20:22:21.304Z,28.50
2017-12-19T20:24:50.099Z,28.97
2017-12-19T20:27:18.559Z,27.57
2017-12-19T20:29:47.349Z,27.47
2017-12-19T20:32:16.889Z,28.77
2017-12-19T20:34:45.371Z,27.33
2017-12-19T20:37:14.043Z,29.70
2017-12-19T20:39:43.432Z,28.40
2017-12-19T20:42:12.127Z,28.17
2017-12-19T20:44:41.528Z,23.53
2017-12-19T20:47:10.938Z,26.47
2017-12-19T20:49:39.631Z,26.73
2017-12-19T20:52:08.318Z,27.10
2017-12-19T20:54:36.595Z,26.57
2017-12-19T20:57:05.761Z,28.23
2017-12-19T20:59:34.089Z,26.67
2017-12-19T21:02:02.571Z,28.30
2017-12-19T21:04:31.117Z,27.40
2017-12-19T21:07:01.133Z,27.43
2017-12-19T21:09:29.507Z,26.97
2017-12-19T21:11:58.131Z,19.40
2017-12-19T21:14:26.548Z,21.97
2017-12-19T21:16:54.836Z,20.43
2017-12-19T21:19:23.327Z,26.10
2017-12-19T21:21:51.723Z,27.30
2017-12-19T21:24:20.020Z,23.73
2017-12-19T21:26:48.378Z,24.07
2017-12-19T21:29:16.660Z,24.93
2017-12-19T21:31:45.054Z,23.20
2017-12-19T21:34:14.144Z,24.73
2017-12-19T21:36:42.459Z,23.57
2017-12-19T21:39:10.733Z,22.77
2017-12-19T21:41:39.106Z,20.10
2017-12-19T21:44:07.391Z,21.33
2017-12-19T21:46:35.706Z,23.03
2017-12-19T21:49:04.779Z,27.63
2017-12-19T21:51:33.060Z,32.67
2017-12-19T21:54:01.327Z,36.77
2017-12-19T21:56:29.615Z,30.73
2017-12-19T21:58:57.952Z,24.70
2017-12-19T22:01:26.168Z,24.40
2017-12-19T22:03:54.591Z,25.53
2017-12-19T22:06:22.841Z,23.23
2017-12-19T22:08:51.094Z,23.57
2017-12-19T22:11:19.430Z,24.30
2017-12-19T22:13:47.662Z,23.93
2017-12-19T22:16:15.935Z,22.13
2017-12-19T22:18:44.455Z,21.67
2017-12-19T22:21:12.739Z,16.67
2017-12-19T22:23:41.376Z,20.87
2017-12-19T22:26:09.646Z,22.57
2017-12-19T22:28:37.904Z,20.10
2017-12-19T22:31:06.951Z,20.90
2017-12-19T22:33:35.175Z,22.77
2017-12-19T22:36:04.177Z,22.50
2017-12-19T22:38:32.449Z,20.80
2017-12-19T22:41:01.639Z,19.30
2017-12-19T22:43:29.909Z,22.50
2017-12-19T22:45:58.117Z,22.73
2017-12-19T22:48:26.400Z,20.90
2017-12-19T22:50:54.643Z,20.30
2017-12-19T22:53:23.664Z,19.77
2017-12-19T22:55:51.927Z,20.40
2017-12-19T22:58:20.183Z,20.50
2017-12-19T23:00:48.440Z,17.97
2017-12-19T23:03:18.336Z,20.43
2017-12-19T23:05:46.605Z,19.63
2017-12-19T23:08:15.026Z,18.67
2017-12-19T23:10:43.254Z,17.07
2017-12-19T23:13:11.513Z,18.03
2017-12-19T23:15:39.776Z,19.27
2017-12-19T23:18:08.764Z,18.20
2017-12-19T23:20:37.294Z,19.03
2017-12-19T23:23:05.550Z,20.37
2017-12-19T23:25:33.815Z,19.17
2017-12-19T23:28:02.805Z,19.60
2017-12-19T23:30:31.823Z,16.03
2017-12-19T23:33:00.105Z,17.87
2017-12-19T23:35:28.338Z,17.60
2017-12-19T23:37:56.609Z,16.93
2017-12-19T23:40:24.832Z,13.80
2017-12-19T23:42:53.082Z,13.53
2017-12-19T23:45:22.092Z,12.00
2017-12-19T23:47:50.387Z,12.27
2017-12-19T23:50:18.611Z,10.63
2017-12-19T23:52:46.872Z,13.60
2017-12-19T23:55:15.127Z,16.53
2017-12-19T23:57:43.378Z,17.37
